Time;durP1;ratioP1;P1;durP2;ratioP2;P2;SDS_P1;SDS_P2;PMS_P1;PMS_P2;Temp;Humidity;BMP_temperature;BMP_pressure;BME280_temperature;BME280_humidity;BME280_pressure;Samples;Min_cycle;Max_cycle;Signal;HPM_P1;HPM_P2
2023/08/08 00:00:14;;;;;;;4.35;2.78;;;;;;;16.99;100.00;97397.75;5084502;28;20028;-72
2023/08/08 00:02:40;;;;;;;8.48;2.47;;;;;;;16.91;100.00;97389.50;5035820;28;20029;-71
2023/08/08 00:05:06;;;;;;;4.55;2.88;;;;;;;16.80;100.00;97391.31;5070187;28;20031;-72
2023/08/08 00:07:31;;;;;;;5.85;3.10;;;;;;;16.71;100.00;97386.72;5052411;28;20031;-71
2023/08/08 00:09:57;;;;;;;4.95;2.53;;;;;;;16.74;100.00;97405.38;5070099;28;20029;-71
2023/08/08 00:12:22;;;;;;;3.10;2.63;;;;;;;16.76;100.00;97403.38;5052461;28;20024;-71
2023/08/08 00:14:48;;;;;;;7.72;2.60;;;;;;;16.66;100.00;97388.13;5070380;28;20579;-71
2023/08/08 00:17:14;;;;;;;4.60;2.78;;;;;;;16.55;100.00;97375.56;5070471;28;20032;-72
2023/08/08 00:19:39;;;;;;;4.03;2.90;;;;;;;16.47;100.00;97364.56;5070206;28;20028;-72
2023/08/08 00:22:05;;;;;;;7.43;3.20;;;;;;;16.52;100.00;97359.59;5052434;28;20032;-72
2023/08/08 00:24:31;;;;;;;3.60;2.60;;;;;;;16.60;100.00;97346.34;5052449;28;20480;-72
2023/08/08 00:26:56;;;;;;;4.30;2.78;;;;;;;16.45;100.00;97344.97;5070268;28;20030;-73
2023/08/08 00:29:22;;;;;;;3.88;2.78;;;;;;;16.46;100.00;97346.66;5069953;28;20017;-71
2023/08/08 00:31:47;;;;;;;4.35;3.40;;;;;;;16.52;100.00;97356.09;5052296;28;20036;-71
2023/08/08 00:34:13;;;;;;;4.22;2.75;;;;;;;16.53;100.00;97358.63;5069881;28;20073;-71
2023/08/08 00:36:38;;;;;;;3.30;2.47;;;;;;;16.53;100.00;97360.47;5085629;28;20436;-71
2023/08/08 00:39:04;;;;;;;6.38;2.65;;;;;;;16.56;100.00;97361.09;5051959;28;20048;-72
2023/08/08 00:41:29;;;;;;;2.97;2.50;;;;;;;16.59;100.00;97355.41;5070102;28;20032;-72
2023/08/08 00:43:55;;;;;;;3.42;2.75;;;;;;;16.67;100.00;97349.34;5070174;28;20104;-72
2023/08/08 00:46:21;;;;;;;3.20;2.30;;;;;;;16.57;100.00;97343.03;5069838;28;20553;-72
2023/08/08 00:48:47;;;;;;;6.35;2.58;;;;;;;16.60;100.00;97322.03;5053199;28;20086;-72
2023/08/08 00:51:13;;;;;;;5.15;2.42;;;;;;;16.61;100.00;97328.28;5070237;28;20032;-72
2023/08/08 00:53:38;;;;;;;5.07;2.70;;;;;;;16.62;100.00;97344.34;5052311;28;20051;-72
2023/08/08 00:56:04;;;;;;;3.67;2.78;;;;;;;16.61;100.00;97350.72;5051850;28;20052;-72
2023/08/08 00:58:30;;;;;;;5.65;2.95;;;;;;;16.66;100.00;97355.72;5052211;28;20098;-72
2023/08/08 01:00:59;;;;;;;6.28;2.80;;;;;;;16.57;100.00;97360.09;5070218;28;20040;-72
2023/08/08 01:03:25;;;;;;;3.28;2.80;;;;;;;16.66;100.00;97369.22;5035606;28;20039;-72
2023/08/08 01:06:00;;;;;;;7.40;3.33;;;;;;;16.74;100.00;97372.94;5070262;28;20032;-72
2023/08/08 01:08:33;;;;;;;4.68;3.08;;;;;;;16.72;100.00;97380.34;5051918;28;20020;-72
2023/08/08 01:10:59;;;;;;;5.65;2.83;;;;;;;16.67;100.00;97387.97;5053032;28;20028;-71
2023/08/08 01:13:25;;;;;;;6.22;2.78;;;;;;;16.61;100.00;97396.63;5051819;28;20028;-71
2023/08/08 01:15:53;;;;;;;3.70;2.97;;;;;;;16.53;100.00;97377.53;5051716;28;20107;-72
2023/08/08 01:18:19;;;;;;;9.10;2.85;;;;;;;16.57;100.00;97392.50;5034931;28;20071;-72
2023/08/08 01:20:46;;;;;;;3.70;2.80;;;;;;;16.50;100.00;97394.00;5070990;28;20024;-72
2023/08/08 01:23:16;;;;;;;6.30;3.00;;;;;;;16.60;100.00;97404.88;5055258;28;20495;-72
2023/08/08 01:25:42;;;;;;;3.92;2.90;;;;;;;16.62;100.00;97411.00;5055636;28;20020;-73
2023/08/08 01:28:08;;;;;;;4.10;3.10;;;;;;;16.59;100.00;97412.13;5055543;28;20357;-71
2023/08/08 01:30:33;;;;;;;4.82;3.45;;;;;;;16.65;100.00;97417.00;5073315;28;20051;-72
2023/08/08 01:32:59;;;;;;;3.97;3.22;;;;;;;16.60;100.00;97413.00;5055428;28;20029;-72
2023/08/08 01:35:26;;;;;;;4.90;3.55;;;;;;;16.69;100.00;97431.94;5055208;28;20450;-71
2023/08/08 01:38:02;;;;;;;5.22;2.90;;;;;;;16.69;100.00;97433.78;5038404;28;20040;-72
2023/08/08 01:40:29;;;;;;;4.75;3.17;;;;;;;16.66;100.00;97434.06;5056942;28;20042;-72
2023/08/08 01:42:55;;;;;;;4.82;2.83;;;;;;;16.55;100.00;97437.69;5073413;28;20090;-72
2023/08/08 01:45:21;;;;;;;3.08;2.78;;;;;;;16.48;100.00;97441.91;5055053;28;20059;-72
2023/08/08 01:47:50;;;;;;;7.78;2.50;;;;;;;16.46;100.00;97434.91;5055234;28;20041;-72
2023/08/08 01:50:16;;;;;;;3.10;2.67;;;;;;;16.44;100.00;97440.44;5073474;28;20059;-72
2023/08/08 01:52:41;;;;;;;2.97;2.60;;;;;;;16.48;100.00;97435.63;5073137;28;20020;-72
2023/08/08 01:55:07;;;;;;;2.95;2.65;;;;;;;16.47;100.00;97429.38;5055080;28;20028;-73
2023/08/08 01:57:33;;;;;;;3.70;2.58;;;;;;;16.50;100.00;97428.25;5073021;28;20028;-72
2023/08/08 01:59:58;;;;;;;6.18;2.58;;;;;;;16.50;100.00;97433.66;5055084;28;20093;-72
2023/08/08 02:02:24;;;;;;;3.72;2.40;;;;;;;16.57;100.00;97454.63;5072731;28;20040;-72
2023/08/08 02:04:49;;;;;;;3.80;2.47;;;;;;;16.51;100.00;97441.63;5073088;28;20032;-72
2023/08/08 02:07:16;;;;;;;2.95;2.50;;;;;;;16.58;100.00;97439.28;5072514;28;20032;-72
2023/08/08 02:09:41;;;;;;;5.00;2.60;;;;;;;16.57;100.00;97443.81;5054729;28;20071;-71
2023/08/08 02:12:07;;;;;;;3.08;2.47;;;;;;;16.60;100.00;97446.25;5038357;28;20063;-72
2023/08/08 02:14:32;;;;;;;6.63;2.55;;;;;;;16.44;100.00;97436.88;5054446;28;20075;-72
2023/08/08 02:16:58;;;;;;;4.78;2.63;;;;;;;16.39;100.00;97434.59;5073739;28;20115;-71
2023/08/08 02:19:23;;;;;;;4.00;2.53;;;;;;;16.42;100.00;97441.56;5054410;28;20459;-71
2023/08/08 02:21:49;;;;;;;4.70;2.63;;;;;;;16.45;100.00;97436.78;5072459;28;20089;-71
2023/08/08 02:24:14;;;;;;;6.97;2.25;;;;;;;16.44;100.00;97435.03;5054497;28;20046;-72
2023/08/08 02:26:40;;;;;;;2.72;2.35;;;;;;;16.40;100.00;97433.59;5037615;28;20460;-72
2023/08/08 02:29:05;;;;;;;3.25;2.72;;;;;;;16.50;100.00;97453.41;5072177;28;20199;-72
2023/08/08 02:31:31;;;;;;;6.50;2.80;;;;;;;16.42;100.00;97442.44;5071814;28;20460;-71
2023/08/08 02:33:56;;;;;;;2.75;2.15;;;;;;;16.49;100.00;97449.00;5054740;28;20089;-70
2023/08/08 02:36:22;;;;;;;4.47;2.78;;;;;;;16.54;100.00;97449.50;5054048;28;20089;-71
2023/08/08 02:38:49;;;;;;;3.20;2.65;;;;;;;16.55;100.00;97453.88;5053810;28;20044;-71
2023/08/08 02:41:15;;;;;;;3.22;2.38;;;;;;;16.59;100.00;97459.88;5071925;28;20032;-72
2023/08/08 02:43:40;;;;;;;3.20;2.40;;;;;;;16.56;100.00;97458.31;5087314;28;20064;-72
2023/08/08 02:46:06;;;;;;;3.58;2.50;;;;;;;16.59;100.00;97474.25;5053957;28;20027;-72
2023/08/08 02:48:32;;;;;;;4.43;2.42;;;;;;;16.65;100.00;97468.31;5071579;28;20029;-73
2023/08/08 02:50:58;;;;;;;8.70;3.38;;;;;;;16.68;100.00;97484.25;5054901;28;20028;-71
2023/08/08 02:53:23;;;;;;;7.30;3.65;;;;;;;16.62;100.00;97482.09;5071803;28;20538;-71
2023/08/08 02:55:49;;;;;;;7.68;3.10;;;;;;;16.49;100.00;97477.88;5053405;28;20446;-71
2023/08/08 02:58:14;;;;;;;7.88;4.80;;;;;;;16.55;100.00;97480.91;5053536;28;20032;-71
2023/08/08 03:00:40;;;;;;;3.63;2.70;;;;;;;16.53;100.00;97482.00;5053485;28;20491;-71
2023/08/08 03:03:05;;;;;;;2.97;2.38;;;;;;;16.50;100.00;97483.13;5071553;28;20032;-71
2023/08/08 03:05:31;;;;;;;9.77;2.63;;;;;;;16.52;100.00;97486.53;5037039;28;20561;-71
2023/08/08 03:07:56;;;;;;;5.97;3.20;;;;;;;16.56;100.00;97488.03;5053432;28;20446;-71
2023/08/08 03:10:22;;;;;;;3.72;2.28;;;;;;;16.53;100.00;97492.78;5072377;28;20028;-71
2023/08/08 03:12:47;;;;;;;4.80;2.50;;;;;;;16.55;100.00;97502.50;5071520;28;20400;-71
2023/08/08 03:15:13;;;;;;;3.90;2.20;;;;;;;16.52;100.00;97493.81;5071051;28;20028;-71
2023/08/08 03:17:39;;;;;;;7.22;2.78;;;;;;;16.53;100.00;97495.50;5053360;28;20086;-71
2023/08/08 03:20:06;;;;;;;13.20;3.45;;;;;;;16.63;100.00;97502.72;5053497;28;20016;-72
2023/08/08 03:22:32;;;;;;;7.03;3.33;;;;;;;16.66;100.00;97499.75;5057757;28;20028;-71
2023/08/08 03:24:58;;;;;;;5.60;3.67;;;;;;;16.75;100.00;97509.75;5071225;28;20112;-71
2023/08/08 03:27:24;;;;;;;3.75;2.67;;;;;;;16.74;100.00;97524.22;5037435;28;20349;-71
2023/08/08 03:29:49;;;;;;;9.02;3.00;;;;;;;16.76;100.00;97548.41;5086512;28;20029;-71
2023/08/08 03:32:15;;;;;;;3.85;2.58;;;;;;;16.77;100.00;97550.97;5070991;28;20089;-71
2023/08/08 03:34:40;;;;;;;4.03;2.92;;;;;;;16.73;100.00;97554.91;5052733;28;20052;-72
2023/08/08 03:37:06;;;;;;;5.57;4.05;;;;;;;16.78;100.00;97547.28;5053046;28;20021;-71
2023/08/08 03:39:31;;;;;;;3.20;2.83;;;;;;;16.85;100.00;97541.34;5070691;28;20044;-71
2023/08/08 03:41:57;;;;;;;11.48;4.72;;;;;;;16.76;100.00;97529.50;5070649;28;20020;-72
2023/08/08 03:44:23;;;;;;;5.80;3.45;;;;;;;16.81;100.00;97538.06;5070970;28;20483;-71
2023/08/08 03:46:49;;;;;;;6.15;5.32;;;;;;;16.77;100.00;97523.97;5052832;28;20321;-71
2023/08/08 03:49:15;;;;;;;5.47;2.63;;;;;;;16.85;100.00;97536.81;5070674;28;20345;-71
2023/08/08 03:51:40;;;;;;;8.50;2.70;;;;;;;16.89;100.00;97559.03;5052813;28;20036;-72
2023/08/08 03:54:08;;;;;;;5.35;3.17;;;;;;;16.85;100.00;97573.78;5036170;28;20032;-72
2023/08/08 03:56:34;;;;;;;5.90;3.38;;;;;;;16.91;100.00;97571.41;5070697;28;20060;-72
2023/08/08 03:58:59;;;;;;;5.07;2.85;;;;;;;16.82;100.00;97552.44;5070375;28;20066;-73
2023/08/08 04:01:25;;;;;;;7.80;2.67;;;;;;;16.75;100.00;97542.16;5056554;28;20036;-72
2023/08/08 04:03:50;;;;;;;5.25;3.10;;;;;;;16.76;100.00;97526.81;5054107;28;20040;-71
2023/08/08 04:06:16;;;;;;;4.47;2.58;;;;;;;16.65;100.00;97522.31;5052265;28;20021;-71
2023/08/08 04:08:41;;;;;;;3.85;3.17;;;;;;;16.69;100.00;97521.09;5070576;28;20037;-71
2023/08/08 04:11:07;;;;;;;5.40;3.90;;;;;;;16.87;100.00;97539.38;5070792;28;20025;-71
2023/08/08 04:13:33;;;;;;;11.52;6.50;;;;;;;16.96;100.00;97533.16;5052722;28;20063;-71
2023/08/08 04:15:59;;;;;;;7.28;3.00;;;;;;;16.95;100.00;97536.88;5052678;28;20033;-72
2023/08/08 04:18:24;;;;;;;8.63;3.15;;;;;;;16.88;100.00;97530.28;5072978;28;20055;-71
2023/08/08 04:20:50;;;;;;;3.35;2.63;;;;;;;16.87;100.00;97533.97;5070509;28;20024;-72
2023/08/08 04:23:15;;;;;;;3.75;2.70;;;;;;;16.83;100.00;97538.78;5052297;28;20032;-72
2023/08/08 04:25:41;;;;;;;6.88;2.80;;;;;;;16.82;100.00;97538.91;5070464;28;20032;-72
2023/08/08 04:28:06;;;;;;;5.97;2.90;;;;;;;16.98;100.00;97550.94;5052050;28;20029;-73
2023/08/08 04:30:32;;;;;;;6.25;3.90;;;;;;;17.11;100.00;97561.53;5070534;28;20027;-75
2023/08/08 04:32:57;;;;;;;6.03;2.78;;;;;;;17.05;100.00;97553.97;5070009;28;20020;-71
2023/08/08 04:35:23;;;;;;;3.72;2.67;;;;;;;17.15;100.00;97550.34;5070119;28;20025;-71
2023/08/08 04:37:48;;;;;;;3.63;2.72;;;;;;;17.28;100.00;97561.78;5052124;28;20044;-72
2023/08/08 04:40:14;;;;;;;3.58;2.75;;;;;;;17.37;100.00;97562.81;5035534;28;20059;-72
2023/08/08 04:42:41;;;;;;;7.97;3.70;;;;;;;17.49;100.00;97574.38;5070294;28;20024;-72
2023/08/08 04:45:07;;;;;;;9.70;4.55;;;;;;;17.66;100.00;97584.56;5052174;28;20090;-72
2023/08/08 04:47:32;;;;;;;6.97;3.40;;;;;;;17.61;100.00;97592.22;5070319;28;20035;-73
2023/08/08 04:49:58;;;;;;;4.80;2.88;;;;;;;17.62;100.00;97578.59;5052412;28;20028;-72
2023/08/08 04:52:23;;;;;;;6.82;3.45;;;;;;;17.63;100.00;97574.88;5036389;28;20097;-72
2023/08/08 04:54:49;;;;;;;5.25;3.20;;;;;;;17.63;100.00;97572.16;5051937;28;20542;-71
2023/08/08 04:57:14;;;;;;;6.05;3.22;;;;;;;17.70;100.00;97594.97;5073260;28;20032;-72
2023/08/08 04:59:40;;;;;;;14.88;4.93;;;;;;;17.66;100.00;97582.72;5055650;28;20050;-72
2023/08/08 05:02:05;;;;;;;6.25;3.33;;;;;;;17.77;100.00;97589.88;5055505;28;20024;-73
2023/08/08 05:04:31;;;;;;;6.50;3.08;;;;;;;17.81;100.00;97575.91;5073765;28;20028;-72
2023/08/08 05:06:57;;;;;;;7.47;3.90;;;;;;;17.83;100.00;97584.78;5038753;28;20101;-74
2023/08/08 05:09:26;;;;;;;5.15;3.03;;;;;;;17.73;100.00;97573.06;5072395;28;20384;-76
2023/08/08 05:11:52;;;;;;;5.07;2.80;;;;;;;17.80;100.00;97576.94;5056965;28;20400;-73
2023/08/08 05:14:18;;;;;;;4.63;2.72;;;;;;;17.74;100.00;97566.66;5053203;28;21181;-72
2023/08/08 05:16:43;;;;;;;3.25;2.70;;;;;;;17.95;100.00;97569.25;5054121;28;20039;-78
2023/08/08 05:19:09;;;;;;;3.80;2.40;;;;;;;18.03;100.00;97588.34;5037179;28;20085;-73
2023/08/08 05:21:34;;;;;;;6.00;2.60;;;;;;;17.99;100.00;97577.94;5053014;28;20024;-73
2023/08/08 05:24:00;;;;;;;3.72;2.67;;;;;;;18.15;100.00;97568.25;5071182;28;20032;-72
2023/08/08 05:26:25;;;;;;;3.60;2.60;;;;;;;18.18;100.00;97567.16;5036290;28;20020;-72
2023/08/08 05:28:51;;;;;;;3.65;2.63;;;;;;;18.22;100.00;97557.72;5069248;28;20029;-72
2023/08/08 05:31:16;;;;;;;5.82;2.90;;;;;;;18.30;100.00;97561.44;5052836;28;20492;-74
2023/08/08 05:33:42;;;;;;;50.25;29.75;;;;;;;19.13;100.00;97568.94;5069120;28;20167;-73
2023/08/08 05:36:08;;;;;;;13.32;6.53;;;;;;;20.57;100.00;97565.41;5052960;28;20059;-73
2023/08/08 05:38:33;;;;;;;7.82;4.50;;;;;;;21.51;100.00;97550.09;5052744;28;20068;-70
2023/08/08 05:40:58;;;;;;;6.78;2.90;;;;;;;22.33;100.00;97558.41;5070844;28;20162;-70
2023/08/08 05:43:24;;;;;;;6.32;3.90;;;;;;;23.95;100.00;97569.13;5075310;28;20164;-70
2023/08/08 05:45:49;;;;;;;5.65;2.15;;;;;;;24.70;100.00;97570.25;5055976;28;20043;-69
2023/08/08 05:48:15;;;;;;;4.13;2.15;;;;;;;24.61;100.00;97579.56;5052773;28;20032;-70
2023/08/08 05:50:41;;;;;;;16.25;3.20;;;;;;;23.88;100.00;97592.72;5086284;28;20036;-70
2023/08/08 05:53:07;;;;;;;10.90;3.17;;;;;;;23.47;100.00;97602.94;5035504;28;20075;-70
2023/08/08 05:55:33;;;;;;;5.80;3.03;;;;;;;24.11;100.00;97600.03;5052035;28;20036;-70
2023/08/08 05:57:58;;;;;;;12.38;2.97;;;;;;;24.25;100.00;97599.25;5069957;28;20518;-71
2023/08/08 06:00:24;;;;;;;13.57;3.67;;;;;;;25.00;100.00;97583.03;5051864;28;20357;-70
2023/08/08 06:02:49;;;;;;;8.63;4.80;;;;;;;25.06;100.00;97582.31;5069746;28;20070;-70
2023/08/08 06:05:17;;;;;;;11.90;3.10;;;;;;;24.57;100.00;97586.41;5052052;28;20020;-70
2023/08/08 06:07:42;;;;;;;13.20;7.88;;;;;;;24.28;100.00;97581.63;5051410;28;20040;-71
2023/08/08 06:10:09;;;;;;;6.30;2.55;;;;;;;24.95;100.00;97555.34;5051969;28;20430;-70
2023/08/08 06:12:34;;;;;;;10.43;3.15;;;;;;;24.91;100.00;97556.78;5051699;28;20032;-70
2023/08/08 06:15:00;;;;;;;12.38;5.72;;;;;;;24.18;100.00;97590.06;5051795;28;20047;-70
2023/08/08 06:17:25;;;;;;;4.10;2.42;;;;;;;24.66;100.00;97596.28;5051892;28;20511;-70
2023/08/08 06:19:51;;;;;;;4.90;2.03;;;;;;;24.90;100.00;97578.84;5069330;28;20028;-70
2023/08/08 06:22:17;;;;;;;4.90;2.10;;;;;;;25.12;100.00;97577.97;5069328;28;20516;-70
2023/08/08 06:24:42;;;;;;;5.78;2.38;;;;;;;26.98;87.49;97549.03;5051475;28;20016;-70
2023/08/08 06:27:08;;;;;;;7.15;3.08;;;;;;;27.65;76.20;97557.63;5084930;28;20025;-71
2023/08/08 06:29:33;;;;;;;5.13;2.20;;;;;;;26.58;77.14;97550.50;5051524;28;20408;-71
2023/08/08 06:31:59;;;;;;;17.30;6.53;;;;;;;27.10;67.80;97541.94;5069230;28;20036;-71
2023/08/08 06:34:24;;;;;;;3.85;1.95;;;;;;;27.08;60.28;97538.56;5069405;28;20044;-71
2023/08/08 06:36:50;;;;;;;8.35;2.35;;;;;;;28.58;56.29;97532.19;5069219;28;20465;-71
2023/08/08 06:39:16;;;;;;;1.63;1.10;;;;;;;29.45;50.45;97516.41;5069196;28;20059;-71
2023/08/08 06:41:41;;;;;;;4.00;1.10;;;;;;;29.31;51.65;97516.66;5050756;28;20035;-71
2023/08/08 06:44:07;;;;;;;4.10;1.00;;;;;;;29.72;47.75;97508.09;5084903;28;20074;-71
2023/08/08 06:46:33;;;;;;;4.47;2.60;;;;;;;30.04;55.38;97535.59;5051190;28;20485;-70
2023/08/08 06:48:59;;;;;;;7.45;1.88;;;;;;;29.39;64.72;97546.75;5050906;28;20045;-70
2023/08/08 06:51:25;;;;;;;7.15;1.90;;;;;;;28.12;64.49;97559.56;5084225;28;20124;-71
2023/08/08 06:53:51;;;;;;;2.65;1.63;;;;;;;28.55;58.72;97545.56;5068198;28;20029;-70
2023/08/08 06:56:17;;;;;;;12.60;6.97;;;;;;;28.29;62.01;97549.06;5051151;28;20029;-70
2023/08/08 06:58:43;;;;;;;1.80;1.02;;;;;;;28.89;53.49;97524.25;5050871;28;20033;-70
2023/08/08 07:01:09;;;;;;;1.10;1.00;;;;;;;29.78;49.08;97518.25;5051368;28;20036;-70
2023/08/08 07:03:35;;;;;;;4.18;1.65;;;;;;;28.63;50.37;97528.84;5068919;28;20041;-72
2023/08/08 07:06:01;;;;;;;4.38;1.17;;;;;;;29.76;49.68;97531.41;5050623;28;20618;-70
2023/08/08 07:08:26;;;;;;;2.60;1.50;;;;;;;30.56;47.10;97523.47;5050930;28;20087;-70
2023/08/08 07:10:52;;;;;;;4.72;1.27;;;;;;;31.12;46.79;97522.69;5033994;28;20040;-70
2023/08/08 07:13:17;;;;;;;1.70;1.20;;;;;;;31.44;44.07;97516.00;5050720;28;20460;-70
2023/08/08 07:15:43;;;;;;;4.85;1.50;;;;;;;30.62;47.03;97517.06;5068640;28;20476;-70
2023/08/08 07:18:09;;;;;;;2.53;1.10;;;;;;;28.52;46.65;97520.13;5049608;28;20372;-70
2023/08/08 07:20:34;;;;;;;0.95;0.68;;;;;;;28.41;47.69;97525.41;5050809;28;20035;-71
2023/08/08 07:23:01;;;;;;;4.95;1.58;;;;;;;29.48;45.15;97510.47;5050629;28;20119;-71
2023/08/08 07:25:26;;;;;;;1.42;0.80;;;;;;;29.24;44.06;97505.63;5068467;28;20032;-71
2023/08/08 07:27:52;;;;;;;3.75;1.08;;;;;;;28.93;44.47;97505.38;5067902;28;20036;-71
2023/08/08 07:30:17;;;;;;;2.80;0.80;;;;;;;28.69;47.30;97519.78;5050473;28;20035;-71
2023/08/08 07:32:43;;;;;;;3.13;1.00;;;;;;;29.83;44.82;97516.56;5068027;28;20166;-71
2023/08/08 07:35:09;;;;;;;1.10;0.75;;;;;;;29.58;43.86;97510.03;5067618;28;20384;-71
2023/08/08 07:37:35;;;;;;;2.17;0.85;;;;;;;29.13;44.13;97513.66;5050080;28;20472;-71
2023/08/08 07:40:01;;;;;;;0.65;0.65;;;;;;;28.83;44.67;97522.31;5067760;28;20032;-71
2023/08/08 07:42:27;;;;;;;2.40;1.35;;;;;;;27.80;48.08;97527.25;5050463;28;20086;-71
2023/08/08 07:44:52;;;;;;;3.20;1.73;;;;;;;27.03;49.77;97529.22;5068245;28;20092;-70
2023/08/08 07:47:17;;;;;;;2.85;1.25;;;;;;;27.71;48.48;97526.56;5049605;28;20186;-70
2023/08/08 07:49:43;;;;;;;8.90;2.30;;;;;;;27.92;46.43;97526.47;5068137;28;20021;-71
2023/08/08 07:52:09;;;;;;;3.88;1.58;;;;;;;27.56;47.11;97514.00;5049799;28;20031;-70
2023/08/08 07:54:34;;;;;;;8.13;1.70;;;;;;;29.40;44.36;97518.13;5067994;28;20407;-70
2023/08/08 07:57:00;;;;;;;1.55;0.88;;;;;;;30.33;42.25;97512.09;5049712;28;20035;-70
2023/08/08 07:59:26;;;;;;;16.48;3.70;;;;;;;30.84;41.72;97519.47;5049711;28;20067;-71
2023/08/08 08:01:52;;;;;;;1.77;1.40;;;;;;;30.43;40.71;97512.50;5050217;28;20058;-71
2023/08/08 08:04:18;;;;;;;10.70;5.53;;;;;;;30.53;41.19;97510.13;5049822;28;20571;-70
2023/08/08 08:06:43;;;;;;;3.63;0.77;;;;;;;30.01;41.81;97513.97;5067878;28;20107;-69
2023/08/08 08:09:09;;;;;;;1.17;0.80;;;;;;;29.90;41.07;97505.53;5067530;28;20028;-71
2023/08/08 08:11:34;;;;;;;3.88;1.40;;;;;;;30.13;42.49;97519.63;5067944;28;20063;-71
2023/08/08 08:14:00;;;;;;;4.28;1.85;;;;;;;31.12;41.87;97523.56;5067228;28;20050;-71
2023/08/08 08:16:25;;;;;;;6.25;1.20;;;;;;;32.55;38.49;97513.91;5049565;28;20044;-70
2023/08/08 08:18:51;;;;;;;5.30;1.25;;;;;;;31.52;38.87;97503.84;5068035;28;20035;-70
2023/08/08 08:21:17;;;;;;;4.75;1.23;;;;;;;29.37;42.13;97518.56;5048808;28;20825;-70
2023/08/08 08:23:44;;;;;;;0.88;0.88;;;;;;;30.01;40.39;97515.88;5067681;28;20112;-71
2023/08/08 08:26:09;;;;;;;5.80;2.47;;;;;;;31.37;40.59;97514.41;5067230;28;20024;-71
2023/08/08 08:28:35;;;;;;;4.50;2.40;;;;;;;31.34;39.79;97520.38;5067674;28;20035;-71
2023/08/08 08:31:07;;;;;;;2.92;1.38;;;;;;;30.75;41.07;97523.59;5069011;28;20426;-71
2023/08/08 08:33:33;;;;;;;17.50;13.65;;;;;;;32.43;38.12;97506.63;5053581;28;20092;-71
2023/08/08 08:35:59;;;;;;;5.32;1.40;;;;;;;32.71;37.65;97513.28;5053777;28;20040;-71
2023/08/08 08:38:24;;;;;;;31.55;12.93;;;;;;;31.77;37.38;97514.88;5071239;28;20036;-71
2023/08/08 08:40:51;;;;;;;1.63;1.13;;;;;;;30.06;39.64;97513.28;5053709;28;20028;-71
2023/08/08 08:43:16;;;;;;;6.63;5.93;;;;;;;28.30;43.39;97534.28;5053095;28;20024;-71
2023/08/08 08:45:43;;;;;;;2.80;2.00;;;;;;;29.52;41.56;97527.44;5071398;28;20020;-71
2023/08/08 08:48:13;;;;;;;4.45;1.90;;;;;;;29.10;41.73;97527.88;5036384;28;20032;-71
2023/08/08 08:50:39;;;;;;;3.95;1.50;;;;;;;28.02;42.46;97526.09;5053594;28;20048;-70
2023/08/08 08:53:05;;;;;;;3.47;1.13;;;;;;;27.57;43.40;97532.16;5053514;28;20546;-72
2023/08/08 08:55:31;;;;;;;1.83;1.48;;;;;;;28.70;41.58;97527.81;5052942;28;20119;-70
2023/08/08 08:57:56;;;;;;;9.95;2.80;;;;;;;29.32;40.28;97521.09;5036638;28;20060;-71
2023/08/08 09:00:22;;;;;;;1.80;1.00;;;;;;;29.07;39.93;97517.28;5070996;28;20016;-72
2023/08/08 09:02:48;;;;;;;2.60;0.98;;;;;;;27.76;42.33;97523.19;5070738;28;20059;-71
2023/08/08 09:05:15;;;;;;;1.27;1.00;;;;;;;28.08;43.55;97536.31;5070997;28;20025;-71
2023/08/08 09:07:41;;;;;;;5.75;2.67;;;;;;;28.43;43.07;97526.03;5053161;28;20028;-71
2023/08/08 09:10:07;;;;;;;17.63;2.35;;;;;;;28.56;43.61;97538.97;5037085;28;20565;-72
2023/08/08 09:12:33;;;;;;;2.05;1.38;;;;;;;30.40;40.66;97523.13;5055227;28;20517;-71
2023/08/08 09:14:59;;;;;;;3.38;1.23;;;;;;;30.02;38.92;97515.63;5071396;28;20119;-71
2023/08/08 09:17:26;;;;;;;1.95;1.10;;;;;;;31.04;38.35;97511.94;5055402;28;20107;-72
2023/08/08 09:19:54;;;;;;;3.58;1.38;;;;;;;32.87;36.17;97505.38;5055895;28;20024;-71
2023/08/08 09:22:20;;;;;;;1.50;0.73;;;;;;;33.42;34.58;97490.16;5055880;28;20115;-72
2023/08/08 09:24:46;;;;;;;28.30;19.40;;;;;;;33.69;34.09;97485.00;5038682;28;20524;-73
2023/08/08 09:27:12;;;;;;;1.27;0.80;;;;;;;33.88;33.65;97480.13;5038862;28;20028;-74
2023/08/08 09:29:38;;;;;;;4.25;2.17;;;;;;;34.23;34.03;97472.59;5055320;28;20411;-72
2023/08/08 09:32:05;;;;;;;1.55;0.93;;;;;;;33.93;34.43;97483.03;5073390;28;20028;-73
2023/08/08 09:34:30;;;;;;;12.02;1.30;;;;;;;33.29;34.34;97475.69;5055500;28;20032;-73
2023/08/08 09:36:56;;;;;;;1.77;1.50;;;;;;;31.51;37.53;97494.72;5073477;28;20116;-71
2023/08/08 09:39:22;;;;;;;2.30;0.63;;;;;;;28.60;40.36;97501.72;5055362;28;20124;-71
2023/08/08 09:41:47;;;;;;;1.85;1.20;;;;;;;28.07;42.95;97518.09;5072629;28;20052;-72
2023/08/08 09:44:13;;;;;;;8.00;1.25;;;;;;;27.57;44.42;97521.16;5055362;28;20016;-74
2023/08/08 09:46:59;;;;;;;1.55;0.98;;;;;;;26.94;45.06;97512.03;5055121;28;20024;-73
2023/08/08 09:49:25;;;;;;;2.22;1.40;;;;;;;26.49;46.88;97526.16;5054974;28;20059;-72
2023/08/08 09:51:51;;;;;;;1.98;1.60;;;;;;;26.90;45.98;97527.19;5038294;28;20028;-72
2023/08/08 09:54:17;;;;;;;1.50;1.40;;;;;;;27.67;44.14;97516.16;5038341;28;20028;-72
2023/08/08 09:56:43;;;;;;;0.80;0.80;;;;;;;27.34;44.48;97515.94;5054645;28;20028;-72
2023/08/08 09:59:09;;;;;;;2.97;0.90;;;;;;;26.86;45.11;97518.50;5072745;28;20688;-73
2023/08/08 10:01:35;;;;;;;1.45;0.93;;;;;;;28.12;44.54;97523.81;5054760;28;20039;-73
2023/08/08 10:04:03;;;;;;;1.30;0.98;;;;;;;30.75;40.38;97507.84;5038243;28;20031;-72
2023/08/08 10:06:28;;;;;;;0.60;0.60;;;;;;;32.10;37.16;97498.75;5072822;28;20107;-74
2023/08/08 10:08:55;;;;;;;1.33;0.70;;;;;;;32.80;35.89;97493.53;5072352;28;20103;-74
2023/08/08 10:11:22;;;;;;;0.60;0.60;;;;;;;33.46;35.32;97483.06;5054770;28;20024;-73
2023/08/08 10:13:49;;;;;;;2.33;1.13;;;;;;;33.88;33.81;97482.91;5054483;28;20036;-73
2023/08/08 10:16:18;;;;;;;1.63;1.10;;;;;;;33.61;35.12;97482.59;5071213;28;20029;-74
2023/08/08 10:18:46;;;;;;;3.03;1.00;;;;;;;33.35;35.69;97481.09;5054376;28;20463;-73
2023/08/08 10:21:12;;;;;;;1.10;0.88;;;;;;;34.60;33.44;97482.28;5054873;28;20047;-74
2023/08/08 10:23:39;;;;;;;2.58;1.23;;;;;;;35.03;32.42;97470.53;5054743;28;20058;-74
2023/08/08 10:26:05;;;;;;;0.65;0.65;;;;;;;32.53;34.96;97477.28;5054311;28;20024;-73
2023/08/08 10:28:32;;;;;;;4.78;2.53;;;;;;;33.76;33.91;97467.13;5054307;28;20492;-74
2023/08/08 10:31:06;;;;;;;1.00;0.90;;;;;;;32.09;35.56;97463.81;5071965;28;20032;-75
2023/08/08 10:33:42;;;;;;;3.13;1.13;;;;;;;32.64;35.18;97468.19;5055049;28;20036;-74
2023/08/08 10:36:09;;;;;;;3.50;0.82;;;;;;;33.73;32.55;97453.75;5054163;28;20032;-74
2023/08/08 10:38:54;;;;;;;0.60;0.55;;;;;;;30.74;35.57;97461.09;5054188;28;20567;-73
2023/08/08 10:41:21;;;;;;;0.80;0.80;;;;;;;29.44;38.61;97467.03;5072146;28;20394;-73
2023/08/08 10:43:55;;;;;;;3.60;1.30;;;;;;;29.53;39.54;97474.81;5053980;28;20035;-74
2023/08/08 10:46:25;;;;;;;3.20;1.50;;;;;;;28.43;39.28;97479.22;5054410;28;20341;-73
2023/08/08 10:48:52;;;;;;;3.45;2.00;;;;;;;29.32;39.83;97477.84;5037338;28;20444;-73
2023/08/08 10:51:19;;;;;;;0.88;0.82;;;;;;;31.04;36.13;97459.41;5053942;28;20499;-73
2023/08/08 10:53:45;;;;;;;2.80;0.98;;;;;;;32.17;34.02;97444.16;5036397;28;20016;-74
2023/08/08 10:56:13;;;;;;;1.65;0.82;;;;;;;32.67;34.02;97459.38;5036980;28;20035;-74
2023/08/08 10:58:40;;;;;;;0.90;0.80;;;;;;;33.63;32.98;97445.19;5054007;28;20028;-74
2023/08/08 11:01:08;;;;;;;1.60;1.38;;;;;;;36.53;30.18;97435.97;5053567;28;20047;-75
2023/08/08 11:03:39;;;;;;;5.63;2.40;;;;;;;36.99;29.30;97437.28;5054119;28;20024;-74
2023/08/08 11:06:06;;;;;;;4.25;1.00;;;;;;;38.22;27.60;97430.28;5036816;28;20052;-74
2023/08/08 11:08:32;;;;;;;6.53;1.10;;;;;;;37.66;27.20;97424.41;5053586;28;20031;-75
2023/08/08 11:10:59;;;;;;;0.80;0.80;;;;;;;34.51;29.92;97424.53;5053424;28;20032;-75
2023/08/08 11:13:24;;;;;;;0.60;0.60;;;;;;;33.52;30.80;97429.38;5053499;28;20051;-74
2023/08/08 11:15:50;;;;;;;0.80;0.63;;;;;;;34.41;30.41;97425.16;5053521;28;20025;-74
2023/08/08 11:18:16;;;;;;;1.10;0.73;;;;;;;35.05;30.46;97422.97;5053165;28;20036;-74
2023/08/08 11:20:42;;;;;;;0.95;0.80;;;;;;;37.28;28.19;97417.16;5071290;28;20033;-74
2023/08/08 11:23:10;;;;;;;1.23;1.02;;;;;;;37.08;28.33;97418.94;5053398;28;20028;-75